Time;durP1;ratioP1;P1;durP2;ratioP2;P2;SDS_P1;SDS_P2;PMS_P1;PMS_P2;Temp;Humidity;BMP_temperature;BMP_pressure;BME280_temperature;BME280_humidity;BME280_pressure;Samples;Min_cycle;Max_cycle;Signal;HPM_P1;HPM_P2
2022/01/09 00:00:23;;;;;;;0.00;0.00;;;1.70;99.90;;;;;;6164667;23;20318;-70
2022/01/09 00:02:50;;;;;;;0.00;0.00;;;1.70;99.90;;;;;;6163677;23;20270;-70
2022/01/09 00:05:16;;;;;;;0.00;0.00;;;1.60;99.90;;;;;;6164443;23;19993;-71
2022/01/09 00:07:42;;;;;;;0.00;0.00;;;1.60;99.90;;;;;;6189759;23;20172;-70
2022/01/09 00:10:09;;;;;;;0.00;0.00;;;1.60;99.90;;;;;;6190605;23;19988;-71
2022/01/09 00:12:35;;;;;;;0.00;0.00;;;1.60;99.90;;;;;;6162239;23;19989;-71
2022/01/09 00:15:02;;;;;;;0.00;0.00;;;1.60;99.90;;;;;;6164224;23;19993;-70
2022/01/09 00:17:27;;;;;;;0.00;0.00;;;1.60;99.90;;;;;;6189690;23;19985;-69
2022/01/09 00:19:53;;;;;;;0.00;0.00;;;1.50;99.90;;;;;;6190440;23;19989;-71
2022/01/09 00:22:29;;;;;;;0.00;0.00;;;1.50;99.90;;;;;;6189985;23;19998;-72
2022/01/09 00:24:55;;;;;;;0.00;0.00;;;1.50;99.90;;;;;;6164362;23;20294;-72
2022/01/09 00:27:20;;;;;;;0.00;0.00;;;1.50;99.90;;;;;;6190222;23;19989;-72
2022/01/09 00:29:46;;;;;;;0.00;0.00;;;1.50;99.90;;;;;;6189128;23;20048;-73
2022/01/09 00:32:12;;;;;;;0.00;0.00;;;1.60;99.90;;;;;;6163154;23;19993;-73
2022/01/09 00:34:37;;;;;;;0.00;0.00;;;1.60;99.90;;;;;;6189772;23;19989;-74
2022/01/09 00:37:03;;;;;;;0.00;0.00;;;1.60;99.90;;;;;;6163067;23;19993;-74
2022/01/09 00:39:29;;;;;;;0.00;0.00;;;1.60;99.90;;;;;;6163104;23;19993;-72
2022/01/09 00:41:55;;;;;;;0.00;0.00;;;1.50;99.90;;;;;;6163189;23;20000;-74
2022/01/09 00:44:20;;;;;;;0.00;0.00;;;1.40;99.90;;;;;;6189749;23;20108;-71
2022/01/09 00:46:46;;;;;;;0.00;0.00;;;1.40;99.90;;;;;;6162920;23;20017;-73
2022/01/09 00:49:12;;;;;;;0.00;0.00;;;1.40;99.90;;;;;;6163345;23;20001;-74
2022/01/09 00:51:38;;;;;;;0.00;0.00;;;1.30;99.90;;;;;;6175753;23;20009;-78
2022/01/09 00:54:03;;;;;;;0.00;0.00;;;1.20;99.90;;;;;;6188421;23;20351;-78
2022/01/09 00:56:29;;;;;;;0.00;0.00;;;1.20;99.90;;;;;;6187801;23;19989;-73
2022/01/09 00:58:55;;;;;;;0.00;0.00;;;1.20;99.90;;;;;;6188283;23;19993;-74
2022/01/09 01:01:21;;;;;;;0.00;0.00;;;1.20;99.90;;;;;;6189601;23;20004;-73
2022/01/09 01:03:46;;;;;;;0.00;0.00;;;1.10;99.90;;;;;;6189472;23;20124;-74
2022/01/09 01:06:13;;;;;;;0.00;0.00;;;1.10;99.90;;;;;;6188137;23;19993;-74
2022/01/09 01:08:39;;;;;;;0.00;0.00;;;1.10;99.90;;;;;;6189343;23;20064;-73
2022/01/09 01:11:06;;;;;;;0.00;0.00;;;1.10;99.90;;;;;;6190292;23;20052;-76
2022/01/09 01:13:32;;;;;;;0.00;0.00;;;1.10;99.90;;;;;;6189039;23;20162;-74
2022/01/09 01:15:59;;;;;;;0.00;0.00;;;1.00;99.90;;;;;;6193914;23;20001;-74
2022/01/09 01:18:25;;;;;;;0.00;0.00;;;1.00;99.90;;;;;;6187932;23;20013;-72
2022/01/09 01:20:50;;;;;;;0.00;0.00;;;1.00;99.90;;;;;;6187935;23;20263;-72
2022/01/09 01:23:16;;;;;;;0.00;0.00;;;0.90;99.90;;;;;;6189688;23;19989;-72
2022/01/09 01:25:44;;;;;;;0.00;0.00;;;0.90;99.90;;;;;;6187643;23;20052;-73
2022/01/09 01:28:10;;;;;;;0.00;0.00;;;0.90;99.90;;;;;;6188210;23;20086;-74
2022/01/09 01:30:38;;;;;;;0.00;0.00;;;0.80;99.90;;;;;;6187870;23;19993;-74
2022/01/09 01:33:04;;;;;;;0.00;0.00;;;0.80;99.90;;;;;;6188191;23;19999;-71
2022/01/09 01:35:30;;;;;;;0.00;0.00;;;0.80;99.90;;;;;;6188869;23;20459;-75
2022/01/09 01:37:57;;;;;;;0.00;0.00;;;0.80;99.90;;;;;;6189579;23;20017;-76
2022/01/09 01:40:23;;;;;;;0.00;0.00;;;0.70;99.90;;;;;;6188359;23;20012;-73
2022/01/09 01:42:49;;;;;;;0.00;0.00;;;0.70;99.90;;;;;;6188834;23;19989;-72
2022/01/09 01:45:15;;;;;;;0.00;0.00;;;0.60;99.90;;;;;;6189919;23;20060;-73
2022/01/09 01:47:41;;;;;;;0.00;0.00;;;0.50;99.90;;;;;;6187164;23;20068;-72
2022/01/09 01:50:09;;;;;;;0.00;0.00;;;0.50;99.90;;;;;;6189956;23;19996;-74
2022/01/09 01:52:40;;;;;;;0.00;0.00;;;0.50;99.90;;;;;;6186226;23;20016;-73
2022/01/09 01:55:08;;;;;;;0.00;0.00;;;0.40;99.90;;;;;;6188261;23;20020;-76
2022/01/09 01:57:36;;;;;;;0.00;0.00;;;0.40;99.90;;;;;;6190601;23;19985;-79
2022/01/09 02:00:04;;;;;;;0.00;0.00;;;0.30;99.90;;;;;;6188093;23;20176;-72
2022/01/09 02:02:30;;;;;;;;;;;0.30;99.90;;;;;;6189129;23;20068;-77
2022/01/09 02:04:56;;;;;;;0.00;0.00;;;0.30;99.90;;;;;;6187970;23;19900;-75
2022/01/09 02:07:22;;;;;;;0.00;0.00;;;0.30;99.90;;;;;;6187985;23;19989;-75
2022/01/09 02:09:48;;;;;;;0.00;0.00;;;0.30;99.90;;;;;;6187751;23;19993;-78
2022/01/09 02:12:15;;;;;;;0.00;0.00;;;0.20;99.90;;;;;;6187722;23;20095;-78
2022/01/09 02:14:45;;;;;;;0.00;0.00;;;0.20;99.90;;;;;;6187551;23;19993;-75
2022/01/09 02:17:15;;;;;;;0.00;0.00;;;0.20;99.90;;;;;;6189760;23;20323;-74
2022/01/09 02:19:58;;;;;;;0.00;0.00;;;0.10;99.90;;;;;;6187382;23;20044;-74
2022/01/09 02:22:29;;;;;;;0.00;0.00;;;0.10;99.90;;;;;;6188111;23;20228;-77
2022/01/09 02:24:55;;;;;;;0.00;0.00;;;0.10;99.90;;;;;;6188522;23;20285;-76
2022/01/09 02:27:21;;;;;;;0.00;0.00;;;0.00;99.90;;;;;;6187983;23;20101;-72
2022/01/09 02:29:47;;;;;;;0.00;0.00;;;0.00;99.90;;;;;;6188861;23;20032;-78
2022/01/09 02:32:16;;;;;;;0.00;0.00;;;0.00;99.90;;;;;;6188326;23;19989;-79
2022/01/09 02:34:47;;;;;;;0.00;0.00;;;0.00;99.90;;;;;;6187712;23;20020;-77
2022/01/09 02:37:12;;;;;;;0.00;0.00;;;0.00;99.90;;;;;;6187974;23;20279;-80
2022/01/09 02:39:38;;;;;;;0.00;0.00;;;0.10;99.90;;;;;;6189155;23;19985;-75
2022/01/09 02:42:06;;;;;;;0.00;0.00;;;0.10;99.90;;;;;;6189086;23;20037;-77
2022/01/09 02:44:32;;;;;;;0.00;0.00;;;0.10;99.90;;;;;;6188907;23;19989;-78
2022/01/09 02:47:03;;;;;;;0.00;0.00;;;0.10;99.90;;;;;;6187123;23;20137;-76
2022/01/09 02:49:31;;;;;;;0.00;0.00;;;0.10;99.90;;;;;;6187793;23;20001;-72
2022/01/09 02:51:58;;;;;;;0.00;0.00;;;0.10;99.90;;;;;;6189499;23;20005;-77
2022/01/09 02:57:08;;;;;;;0.00;0.00;;;0.10;99.90;;;;;;6190244;23;20064;-81
2022/01/09 02:59:34;;;;;;;0.00;0.00;;;0.20;99.90;;;;;;6164059;23;19997;-75
2022/01/09 03:02:00;;;;;;;0.00;0.00;;;0.20;99.90;;;;;;6162985;23;20031;-72
2022/01/09 03:04:26;;;;;;;0.00;0.00;;;0.20;99.90;;;;;;6188572;23;19993;-72
2022/01/09 03:06:52;;;;;;;0.00;0.00;;;0.10;99.90;;;;;;6162519;23;20053;-74
2022/01/09 03:09:18;;;;;;;0.00;0.00;;;0.10;99.90;;;;;;6162852;23;20005;-73
2022/01/09 03:11:47;;;;;;;0.00;0.00;;;0.00;99.90;;;;;;6161596;23;20335;-72
2022/01/09 03:14:12;;;;;;;;;;;0.00;99.90;;;;;;6189231;23;19989;-73
2022/01/09 03:16:38;;;;;;;0.00;0.00;;;-0.10;99.90;;;;;;6162193;23;20080;-75
2022/01/09 03:19:04;;;;;;;0.00;0.00;;;-0.10;99.90;;;;;;6163319;23;19997;-75
2022/01/09 03:21:29;;;;;;;0.00;0.00;;;-0.10;99.90;;;;;;6163378;23;20057;-73
2022/01/09 03:23:55;;;;;;;0.00;0.00;;;-0.10;99.90;;;;;;6164627;23;20175;-75
2022/01/09 03:27:02;;;;;;;;;;;;;;;;;;;;;
2022/01/09 03:29:29;;;;;;;0.00;0.00;;;-0.20;99.90;;;;;;6169494;23;20008;-71
2022/01/09 03:31:55;;;;;;;0.00;0.00;;;-0.20;99.90;;;;;;6191320;23;20059;-74
2022/01/09 03:34:21;;;;;;;0.00;0.00;;;-0.20;99.90;;;;;;6164677;23;20001;-71
2022/01/09 03:36:47;;;;;;;0.00;0.00;;;-0.20;99.90;;;;;;6190103;23;19989;-78
2022/01/09 03:39:13;;;;;;;0.00;0.00;;;-0.20;99.90;;;;;;6191017;23;19989;-73
2022/01/09 03:41:39;;;;;;;0.00;0.00;;;-0.20;99.90;;;;;;6190604;23;20122;-74
2022/01/09 03:44:05;;;;;;;0.00;0.00;;;-0.20;99.90;;;;;;6163748;23;20072;-75
2022/01/09 03:46:31;;;;;;;0.00;0.00;;;-0.30;99.90;;;;;;6189881;23;20116;-70
2022/01/09 03:48:57;;;;;;;0.00;0.00;;;-0.30;99.90;;;;;;6190090;23;20001;-74
2022/01/09 03:51:26;;;;;;;0.00;0.00;;;-0.30;99.90;;;;;;6173505;23;20012;-73
2022/01/09 03:53:51;;;;;;;;;;;-0.30;99.90;;;;;;6190579;23;19985;-72
2022/01/09 03:56:17;;;;;;;0.00;0.00;;;-0.30;99.90;;;;;;6189200;23;19896;-73
2022/01/09 03:58:43;;;;;;;0.00;0.00;;;-0.30;99.90;;;;;;6188443;23;20048;-74
2022/01/09 04:01:09;;;;;;;0.00;0.00;;;-0.30;99.90;;;;;;6191022;23;19989;-78
2022/01/09 04:03:36;;;;;;;0.00;0.00;;;-0.20;99.90;;;;;;6188578;23;20036;-77
2022/01/09 04:06:02;;;;;;;0.00;0.00;;;-0.20;99.90;;;;;;6189504;23;20016;-76
2022/01/09 04:08:29;;;;;;;0.00;0.00;;;-0.20;99.90;;;;;;6189122;23;20023;-74
2022/01/09 04:10:55;;;;;;;0.00;0.00;;;-0.20;99.90;;;;;;6188861;23;19993;-77
2022/01/09 04:13:21;;;;;;;0.00;0.00;;;-0.20;99.90;;;;;;6188770;23;19993;-75
2022/01/09 04:15:49;;;;;;;0.00;0.00;;;-0.20;99.90;;;;;;6190315;23;20295;-76
2022/01/09 04:18:20;;;;;;;0.00;0.00;;;-0.20;99.90;;;;;;6189519;23;20023;-79
2022/01/09 04:20:46;;;;;;;0.00;0.00;;;-0.20;99.90;;;;;;6190623;23;19988;-80
2022/01/09 04:23:12;;;;;;;0.00;0.00;;;-0.20;99.90;;;;;;6188999;23;19993;-72
2022/01/09 04:25:39;;;;;;;0.00;0.00;;;-0.20;99.90;;;;;;6187947;23;20306;-76
2022/01/09 04:28:04;;;;;;;0.00;0.00;;;-0.20;99.90;;;;;;6188841;23;20060;-76
2022/01/09 04:30:30;;;;;;;0.00;0.00;;;-0.20;99.90;;;;;;6189608;23;20146;-73
2022/01/09 04:32:56;;;;;;;0.00;0.00;;;-0.20;99.90;;;;;;6188756;23;19993;-75
2022/01/09 04:35:21;;;;;;;0.00;0.00;;;-0.20;99.90;;;;;;6189967;23;20196;-74
2022/01/09 04:37:49;;;;;;;0.00;0.00;;;-0.30;99.90;;;;;;6188283;23;20007;-76
2022/01/09 04:40:17;;;;;;;0.00;0.00;;;-0.30;99.90;;;;;;6190713;23;20280;-76
2022/01/09 04:42:46;;;;;;;0.00;0.00;;;-0.30;99.90;;;;;;6187988;23;20000;-75
2022/01/09 04:45:15;;;;;;;0.00;0.00;;;-0.30;99.90;;;;;;6190587;23;19989;-72
2022/01/09 04:47:44;;;;;;;0.00;0.00;;;-0.30;99.90;;;;;;6187772;23;20017;-71
2022/01/09 04:50:14;;;;;;;0.00;0.00;;;-0.30;99.90;;;;;;6188770;23;19995;-71
2022/01/09 04:52:41;;;;;;;0.00;0.00;;;-0.30;99.90;;;;;;6188061;23;20013;-75
2022/01/09 04:55:07;;;;;;;0.00;0.00;;;-0.40;99.90;;;;;;6188838;23;20056;-75
2022/01/09 04:57:34;;;;;;;0.00;0.00;;;-0.30;99.90;;;;;;6187544;23;19993;-76
2022/01/09 05:00:00;;;;;;;0.00;0.00;;;-0.30;99.90;;;;;;6190258;23;19989;-78
2022/01/09 05:02:26;;;;;;;0.00;0.00;;;-0.30;99.90;;;;;;6187875;23;19993;-77
2022/01/09 05:04:51;;;;;;;0.00;0.00;;;-0.30;99.90;;;;;;6188194;23;20200;-73
2022/01/09 05:07:17;;;;;;;0.00;0.00;;;-0.30;99.90;;;;;;6188831;23;20265;-78
2022/01/09 05:09:43;;;;;;;0.00;0.00;;;-0.30;99.90;;;;;;6188722;23;20012;-77
2022/01/09 05:12:09;;;;;;;0.00;0.00;;;-0.30;99.90;;;;;;6189710;23;19990;-83
2022/01/09 05:14:35;;;;;;;0.00;0.00;;;-0.30;99.90;;;;;;6190184;23;20028;-83
2022/01/09 05:17:00;;;;;;;0.00;0.00;;;-0.40;99.90;;;;;;6188805;23;20210;-76
2022/01/09 05:19:31;;;;;;;0.00;0.00;;;-0.40;99.90;;;;;;6189594;23;19997;-81
2022/01/09 05:21:57;;;;;;;0.00;0.00;;;-0.30;99.90;;;;;;6188603;23;20250;-81
2022/01/09 05:24:24;;;;;;;0.00;0.00;;;-0.40;99.90;;;;;;6188702;23;20004;-82
2022/01/09 05:26:50;;;;;;;0.00;0.00;;;-0.40;99.90;;;;;;6188909;23;20003;-80
2022/01/09 05:29:16;;;;;;;0.00;0.00;;;-0.40;99.90;;;;;;6190448;23;19997;-81
2022/01/09 05:31:43;;;;;;;0.00;0.00;;;-0.40;99.90;;;;;;6188814;23;19996;-75
2022/01/09 05:34:09;;;;;;;0.00;0.00;;;-0.40;99.90;;;;;;6188751;23;20284;-83
2022/01/09 05:36:35;;;;;;;0.00;0.00;;;-0.40;99.90;;;;;;6187538;23;20015;-78
2022/01/09 05:39:02;;;;;;;0.00;0.00;;;-0.40;99.90;;;;;;6188329;23;20188;-75
2022/01/09 05:41:28;;;;;;;0.00;0.00;;;-0.40;99.90;;;;;;6190103;23;20024;-82
2022/01/09 05:43:54;;;;;;;0.00;0.00;;;-0.40;99.90;;;;;;6187975;23;20000;-76
2022/01/09 05:46:19;;;;;;;0.00;0.00;;;-0.40;99.90;;;;;;6189675;23;20020;-76
2022/01/09 05:48:45;;;;;;;0.00;0.00;;;-0.30;99.90;;;;;;6189155;23;19997;-76
2022/01/09 05:51:11;;;;;;;0.00;0.00;;;-0.40;99.90;;;;;;6188025;23;20031;-73
2022/01/09 05:53:37;;;;;;;0.00;0.00;;;-0.40;99.90;;;;;;6186869;23;20184;-73
2022/01/09 05:56:03;;;;;;;0.00;0.00;;;-0.40;99.90;;;;;;6187820;23;20287;-72
2022/01/09 05:58:29;;;;;;;0.00;0.00;;;-0.40;99.90;;;;;;6189081;23;19990;-70
2022/01/09 06:00:54;;;;;;;0.00;0.00;;;-0.40;99.90;;;;;;6187334;23;19996;-74
2022/01/09 06:03:21;;;;;;;0.00;0.00;;;-0.40;99.90;;;;;;6189508;23;19997;-71
2022/01/09 06:05:47;;;;;;;0.00;0.00;;;-0.40;99.90;;;;;;6189001;23;20263;-73
2022/01/09 06:08:12;;;;;;;0.00;0.00;;;-0.40;99.90;;;;;;6189527;23;20017;-76
2022/01/09 06:10:38;;;;;;;0.00;0.00;;;-0.40;99.90;;;;;;6186878;23;20004;-77
2022/01/09 06:13:04;;;;;;;0.00;0.00;;;-0.40;99.90;;;;;;6189243;23;20335;-75
2022/01/09 06:15:29;;;;;;;0.00;0.00;;;-0.40;99.90;;;;;;6187403;23;20002;-70
2022/01/09 06:17:55;;;;;;;0.00;0.00;;;-0.30;99.90;;;;;;6187292;23;20287;-76
2022/01/09 06:20:21;;;;;;;0.00;0.00;;;-0.30;99.90;;;;;;6189772;23;19989;-72
2022/01/09 06:22:46;;;;;;;0.00;0.00;;;-0.30;99.90;;;;;;6187395;23;20016;-75
2022/01/09 06:25:13;;;;;;;0.00;0.00;;;-0.40;99.90;;;;;;6189442;23;20012;-74
2022/01/09 06:27:39;;;;;;;0.00;0.00;;;-0.30;99.90;;;;;;6187512;23;20000;-73
2022/01/09 06:30:06;;;;;;;0.00;0.00;;;-0.30;99.90;;;;;;6189867;23;20168;-76
2022/01/09 06:32:32;;;;;;;0.00;0.00;;;-0.40;99.90;;;;;;6187765;23;19990;-73
2022/01/09 06:34:58;;;;;;;0.00;0.00;;;-0.40;99.90;;;;;;6187995;23;19989;-74
2022/01/09 06:37:23;;;;;;;0.00;0.00;;;-0.30;99.90;;;;;;6189112;23;20056;-77
2022/01/09 06:39:50;;;;;;;0.00;0.00;;;-0.30;99.90;;;;;;6187076;23;20279;-77
2022/01/09 06:42:15;;;;;;;0.00;0.00;;;-0.40;99.90;;;;;;6189052;23;19989;-76
2022/01/09 06:44:41;;;;;;;0.00;0.00;;;-0.40;99.90;;;;;;6187631;23;20044;-72
2022/01/09 06:47:07;;;;;;;0.00;0.00;;;-0.40;99.90;;;;;;6189703;23;19996;-74
2022/01/09 06:49:34;;;;;;;0.00;0.00;;;-0.30;99.90;;;;;;6187724;23;20212;-73
2022/01/09 06:52:01;;;;;;;0.00;0.00;;;-0.40;99.90;;;;;;6187775;23;20040;-71
2022/01/09 06:54:28;;;;;;;0.00;0.00;;;-0.40;99.90;;;;;;6188311;23;19997;-74
2022/01/09 06:56:53;;;;;;;0.00;0.00;;;-0.40;99.90;;;;;;6187243;23;20144;-73
2022/01/09 06:59:19;;;;;;;0.00;0.00;;;-0.30;99.90;;;;;;6190870;23;20266;-73
2022/01/09 07:01:45;;;;;;;0.00;0.00;;;-0.30;99.90;;;;;;6190476;23;19989;-74
2022/01/09 07:04:11;;;;;;;0.00;0.00;;;-0.30;99.90;;;;;;6189927;23;20040;-71
2022/01/09 07:06:36;;;;;;;0.00;0.00;;;-0.40;99.90;;;;;;6188963;23;19993;-71
2022/01/09 07:09:03;;;;;;;0.00;0.00;;;-0.40;99.90;;;;;;6191088;23;20017;-72
2022/01/09 07:11:29;;;;;;;0.00;0.00;;;-0.30;99.90;;;;;;6191141;23;19989;-78
2022/01/09 07:13:55;;;;;;;0.00;0.00;;;-0.40;99.90;;;;;;6190856;23;20016;-86
2022/01/09 07:16:21;;;;;;;0.00;0.00;;;-0.40;99.90;;;;;;6191146;23;19993;-76
2022/01/09 07:18:47;;;;;;;0.00;0.00;;;-0.30;99.90;;;;;;6191129;23;20052;-74
2022/01/09 07:21:13;;;;;;;0.00;0.00;;;-0.30;99.90;;;;;;6190622;23;19993;-74
2022/01/09 07:23:38;;;;;;;0.00;0.00;;;-0.30;99.90;;;;;;6188347;23;19993;-76
2022/01/09 07:26:04;;;;;;;0.00;0.00;;;-0.30;99.90;;;;;;6191056;23;19986;-76
2022/01/09 07:28:30;;;;;;;0.00;0.00;;;-0.20;99.90;;;;;;6189487;23;20000;-76
2022/01/09 07:30:56;;;;;;;0.00;0.00;;;-0.30;99.90;;;;;;6189037;23;20052;-77
2022/01/09 07:33:21;;;;;;;0.00;0.00;;;-0.20;99.90;;;;;;6189141;23;19993;-76
2022/01/09 07:35:47;;;;;;;0.00;0.00;;;-0.20;99.90;;;;;;6189112;23;20000;-76
2022/01/09 07:40:57;;;;;;;0.00;0.00;;;-0.20;99.90;;;;;;6190558;23;20306;-77
2022/01/09 07:43:23;;;;;;;0.00;0.00;;;-0.10;99.90;;;;;;6190858;23;19989;-72
2022/01/09 07:45:49;;;;;;;0.00;0.00;;;-0.20;99.90;;;;;;6188463;23;19996;-75
2022/01/09 07:48:14;;;;;;;0.00;0.00;;;-0.10;99.90;;;;;;6188869;23;20180;-70
2022/01/09 07:50:40;;;;;;;0.00;0.00;;;-0.20;99.90;;;;;;6190077;23;20043;-73
2022/01/09 07:53:06;;;;;;;0.00;0.00;;;-0.20;99.90;;;;;;6164884;23;20267;-76
2022/01/09 07:55:32;;;;;;;0.00;0.00;;;-0.20;99.90;;;;;;6164594;23;20168;-72
2022/01/09 07:57:58;;;;;;;0.00;0.00;;;-0.10;99.90;;;;;;6190243;23;19993;-79
2022/01/09 08:00:24;;;;;;;0.00;0.00;;;0.00;99.90;;;;;;6164489;23;20153;-80
2022/01/09 08:02:51;;;;;;;0.00;0.00;;;0.00;99.90;;;;;;6163396;23;20339;-77
2022/01/09 08:05:17;;;;;;;0.00;0.00;;;-0.10;99.90;;;;;;6164650;23;20016;-79
2022/01/09 08:07:43;;;;;;;0.00;0.00;;;0.00;99.90;;;;;;6163608;23;20080;-78
2022/01/09 08:10:10;;;;;;;0.00;0.00;;;0.00;99.90;;;;;;6191367;23;19989;-76
2022/01/09 08:12:36;;;;;;;0.00;0.00;;;0.00;99.90;;;;;;6188963;23;20000;-77
2022/01/09 08:15:03;;;;;;;0.00;0.00;;;0.10;99.90;;;;;;6164575;23;20151;-75
2022/01/09 08:17:29;;;;;;;0.00;0.00;;;0.10;99.90;;;;;;6190363;23;20032;-75
2022/01/09 08:19:54;;;;;;;0.00;0.00;;;0.10;99.90;;;;;;6164041;23;20021;-74
2022/01/09 08:22:20;;;;;;;0.00;0.00;;;0.00;99.90;;;;;;6163914;23;19993;-73
2022/01/09 08:24:47;;;;;;;0.00;0.00;;;0.00;99.90;;;;;;6163693;23;20122;-72
2022/01/09 08:27:13;;;;;;;0.00;0.00;;;0.00;99.90;;;;;;6164158;23;19993;-72
2022/01/09 08:29:38;;;;;;;0.00;0.00;;;0.00;99.90;;;;;;6163992;23;20206;-71
2022/01/09 08:32:07;;;;;;;0.00;0.00;;;0.00;99.90;;;;;;6190650;23;19989;-74
2022/01/09 08:34:33;;;;;;;0.00;0.00;;;0.00;99.90;;;;;;6164389;23;19996;-72
2022/01/09 08:37:00;;;;;;;0.00;0.00;;;0.00;99.90;;;;;;6164694;23;20024;-74
2022/01/09 08:39:25;;;;;;;0.00;0.00;;;0.00;99.90;;;;;;6164694;23;20349;-73
2022/01/09 08:41:51;;;;;;;0.00;0.00;;;0.10;99.90;;;;;;6163443;23;19997;-71
2022/01/09 08:44:17;;;;;;;0.00;0.00;;;0.00;99.90;;;;;;6190293;23;20024;-72
2022/01/09 08:46:43;;;;;;;0.00;0.00;;;0.00;99.90;;;;;;6189592;23;20035;-76
2022/01/09 08:49:08;;;;;;;0.00;0.00;;;0.10;99.90;;;;;;6163883;23;20111;-79
2022/01/09 08:51:34;;;;;;;0.00;0.00;;;0.10;99.90;;;;;;6189161;23;20069;-72
2022/01/09 08:54:00;;;;;;;0.00;0.00;;;0.10;99.90;;;;;;6164238;23;20000;-73
2022/01/09 08:56:27;;;;;;;0.00;0.00;;;0.10;99.90;;;;;;6164073;23;19993;-72
2022/01/09 08:58:54;;;;;;;0.00;0.00;;;0.10;99.90;;;;;;6163512;23;20291;-71
2022/01/09 09:01:20;;;;;;;0.00;0.00;;;0.20;99.90;;;;;;6163427;23;20195;-73
2022/01/09 09:04:05;;;;;;;0.00;0.00;;;0.20;99.90;;;;;;6163912;23;19986;-73
2022/01/09 09:06:31;;;;;;;0.00;0.00;;;0.10;99.90;;;;;;6164096;23;19993;-70
2022/01/09 09:08:57;;;;;;;0.00;0.00;;;0.10;99.90;;;;;;6163665;23;20071;-79
2022/01/09 09:11:23;;;;;;;0.00;0.00;;;0.10;99.90;;;;;;6163743;23;19993;-80
2022/01/09 09:13:48;;;;;;;0.00;0.00;;;0.10;99.90;;;;;;6163655;23;19989;-81
2022/01/09 09:16:16;;;;;;;0.00;0.00;;;0.20;99.90;;;;;;6189640;23;19993;-74
2022/01/09 09:18:43;;;;;;;0.00;0.00;;;0.10;99.90;;;;;;6162968;23;20016;-75
2022/01/09 09:21:10;;;;;;;0.00;0.00;;;0.20;99.90;;;;;;6163501;23;20099;-75
2022/01/09 09:23:36;;;;;;;0.00;0.00;;;0.20;99.90;;;;;;6189952;23;19996;-75
2022/01/09 09:26:02;;;;;;;0.00;0.00;;;0.20;99.90;;;;;;6164012;23;20005;-83
2022/01/09 09:28:27;;;;;;;0.00;0.00;;;0.20;99.90;;;;;;6190237;23;20051;-78
2022/01/09 09:30:53;;;;;;;0.00;0.00;;;0.20;99.90;;;;;;6163844;23;20005;-77
2022/01/09 09:33:19;;;;;;;0.00;0.00;;;0.20;99.90;;;;;;6191663;23;20205;-84
2022/01/09 09:35:45;;;;;;;0.00;0.00;;;0.20;99.90;;;;;;6190576;23;20145;-74
2022/01/09 09:38:10;;;;;;;0.00;0.00;;;0.10;99.90;;;;;;6166908;23;19997;-75
2022/01/09 09:40:36;;;;;;;0.00;0.00;;;0.20;99.90;;;;;;6191350;23;19990;-75
2022/01/09 09:43:02;;;;;;;0.00;0.00;;;0.20;99.90;;;;;;6164417;23;20075;-79
2022/01/09 09:45:28;;;;;;;0.00;0.00;;;0.20;99.90;;;;;;6165115;23;19993;-81
2022/01/09 09:47:54;;;;;;;0.00;0.00;;;0.30;99.90;;;;;;6188791;23;20005;-75
2022/01/09 09:50:21;;;;;;;0.00;0.00;;;0.30;99.90;;;;;;6163075;23;20048;-76
2022/01/09 09:52:49;;;;;;;0.00;0.00;;;0.30;99.90;;;;;;6163175;23;19993;-77
2022/01/09 09:55:17;;;;;;;0.00;0.00;;;0.30;99.90;;;;;;6164167;23;19993;-78
2022/01/09 09:57:43;;;;;;;0.00;0.00;;;0.40;99.90;;;;;;6163229;23;20220;-75
2022/01/09 10:00:12;;;;;;;0.00;0.00;;;0.40;99.90;;;;;;6189445;23;20044;-76
2022/01/09 10:02:42;;;;;;;;;;;0.40;99.90;;;;;;6163636;23;19993;-73
2022/01/09 10:05:08;;;;;;;0.00;0.00;;;0.40;99.90;;;;;;6163591;23;19924;-77
2022/01/09 10:07:34;;;;;;;0.00;0.00;;;0.40;99.90;;;;;;6162741;23;19997;-71
2022/01/09 10:10:05;;;;;;;0.00;0.00;;;0.40;99.90;;;;;;6163307;23;20067;-74
2022/01/09 10:12:32;;;;;;;0.00;0.00;;;0.50;99.90;;;;;;6163976;23;20276;-77
2022/01/09 10:15:00;;;;;;;0.00;0.00;;;0.50;99.90;;;;;;6163018;23;20396;-80
2022/01/09 10:17:27;;;;;;;0.00;0.00;;;0.50;99.90;;;;;;6163960;23;20064;-82
2022/01/09 10:20:21;;;;;;;0.00;0.00;;;0.60;99.90;;;;;;6190424;23;20019;-81
2022/01/09 10:22:48;;;;;;;0.00;0.00;;;0.60;99.90;;;;;;6157953;23;19997;-76
2022/01/09 10:25:35;;;;;;;0.00;0.00;;;0.60;99.90;;;;;;6163890;23;19989;-75
2022/01/09 10:28:13;;;;;;;0.00;0.00;;;0.60;99.90;;;;;;6163591;23;20311;-77
2022/01/09 10:30:40;;;;;;;0.00;0.00;;;0.60;99.90;;;;;;6163860;23;20319;-82
2022/01/09 10:33:13;;;;;;;0.00;0.00;;;0.60;99.90;;;;;;6164939;23;19993;-79
2022/01/09 10:35:47;;;;;;;0.00;0.00;;;0.60;99.90;;;;;;6165618;23;19999;-78
2022/01/09 10:38:16;;;;;;;0.00;0.00;;;0.60;99.90;;;;;;6166637;23;20259;-79
2022/01/09 10:40:49;;;;;;;0.00;0.00;;;0.60;99.90;;;;;;6166686;23;19993;-81
2022/01/09 10:43:16;;;;;;;0.00;0.00;;;0.70;99.90;;;;;;6166257;23;20000;-76
2022/01/09 10:45:46;;;;;;;0.00;0.00;;;0.70;99.90;;;;;;6190861;23;20023;-78
2022/01/09 10:48:23;;;;;;;0.00;0.00;;;0.70;99.90;;;;;;6164981;23;20051;-81
2022/01/09 10:50:51;;;;;;;0.00;0.00;;;0.70;99.90;;;;;;6167650;23;20005;-81
2022/01/09 10:53:27;;;;;;;0.00;0.00;;;0.70;99.90;;;;;;6193126;23;19996;-81
2022/01/09 10:56:08;;;;;;;0.00;0.00;;;0.70;99.90;;;;;;6190380;23;19989;-79
2022/01/09 10:58:38;;;;;;;0.00;0.00;;;0.70;99.90;;;;;;6190836;23;19993;-74
2022/01/09 11:01:12;;;;;;;0.00;0.00;;;0.80;99.90;;;;;;6192873;23;20032;-80
2022/01/09 11:03:41;;;;;;;0.00;0.00;;;0.80;99.90;;;;;;6189962;23;20044;-77
2022/01/09 11:06:07;;;;;;;;;;;0.80;99.90;;;;;;6192433;23;20011;-81
2022/01/09 11:08:35;;;;;;;0.00;0.00;;;0.80;99.90;;;;;;6189218;23;20188;-77
2022/01/09 11:11:05;;;;;;;0.00;0.00;;;0.80;99.90;;;;;;6189306;23;19993;-82
2022/01/09 11:13:32;;;;;;;0.00;0.00;;;0.90;99.90;;;;;;6191630;23;20044;-80
2022/01/09 11:18:45;;;;;;;0.00;0.00;;;0.80;99.90;;;;;;6192860;23;20302;-89
2022/01/09 11:21:11;;;;;;;0.00;0.00;;;0.90;99.90;;;;;;6193029;23;19997;-80
2022/01/09 11:24:06;;;;;;;0.00;0.00;;;0.90;99.90;;;;;;6193450;23;20016;-79
2022/01/09 11:26:51;;;;;;;0.00;0.00;;;0.90;99.90;;;;;;6192518;23;20074;-86
2022/01/09 11:29:39;;;;;;;0.00;0.00;;;0.90;99.90;;;;;;6191605;23;20001;-90
2022/01/09 11:32:30;;;;;;;0.00;0.00;;;1.00;99.90;;;;;;6192628;23;20045;-87
2022/01/09 11:35:19;;;;;;;0.00;0.00;;;0.90;99.90;;;;;;6191153;23;20185;-87
2022/01/09 11:37:59;;;;;;;0.00;0.00;;;0.90;99.90;;;;;;6189983;23;20294;-84
2022/01/09 11:40:33;;;;;;;0.00;0.00;;;1.00;99.90;;;;;;6190138;23;19993;-82
2022/01/09 11:43:06;;;;;;;0.00;0.00;;;1.00;99.90;;;;;;6190682;23;20054;-77
2022/01/09 11:45:41;;;;;;;0.00;0.00;;;1.10;99.90;;;;;;6189329;23;19993;-77
2022/01/09 11:48:07;;;;;;;0.00;0.00;;;1.10;99.90;;;;;;6191141;23;19997;-76
2022/01/09 11:50:34;;;;;;;0.00;0.00;;;1.10;99.90;;;;;;6188544;23;20091;-78
2022/01/09 11:53:01;;;;;;;0.00;0.00;;;1.10;99.90;;;;;;6165222;23;19993;-77
2022/01/09 11:55:53;;;;;;;0.00;0.00;;;1.10;99.90;;;;;;6164904;23;20025;-80
2022/01/09 11:58:21;;;;;;;0.00;0.00;;;1.10;99.90;;;;;;6158150;23;20044;-77
2022/01/09 12:00:47;;;;;;;0.00;0.00;;;1.00;99.90;;;;;;6164520;23;19997;-77
2022/01/09 12:03:28;;;;;;;0.00;0.00;;;1.10;99.90;;;;;;6165123;23;20132;-86
2022/01/09 12:06:08;;;;;;;0.00;0.00;;;1.00;99.90;;;;;;6190979;23;19996;-76
2022/01/09 12:08:53;;;;;;;0.00;0.00;;;1.00;99.90;;;;;;6163886;23;20036;-79
2022/01/09 12:11:19;;;;;;;0.00;0.00;;;1.00;99.90;;;;;;6164310;23;20020;-75
2022/01/09 12:13:47;;;;;;;0.00;0.00;;;1.10;99.90;;;;;;6164013;23;19993;-76
2022/01/09 12:16:45;;;;;;;0.00;0.00;;;1.10;99.90;;;;;;6190809;23;20295;-77
2022/01/09 12:19:11;;;;;;;;;;;1.10;99.90;;;;;;6165409;23;20020;-79
2022/01/09 12:21:49;;;;;;;0.00;0.00;;;1.10;99.90;;;;;;6190847;23;20215;-79
2022/01/09 12:24:43;;;;;;;0.00;0.00;;;1.10;99.90;;;;;;6165620;23;19989;-80
2022/01/09 12:27:48;;;;;;;0.00;0.00;;;1.10;99.90;;;;;;6165209;23;20031;-77
2022/01/09 12:30:41;;;;;;;0.00;0.00;;;1.20;99.90;;;;;;6191643;23;20008;-78
2022/01/09 12:33:27;;;;;;;0.00;0.00;;;1.30;99.90;;;;;;6191208;23;20179;-76
2022/01/09 12:36:01;;;;;;;0.00;0.00;;;1.50;99.90;;;;;;6164441;23;19989;-77
2022/01/09 12:38:32;;;;;;;0.00;0.00;;;1.70;99.90;;;;;;6164419;23;20303;-78
2022/01/09 12:41:01;;;;;;;0.00;0.00;;;1.80;99.90;;;;;;6190962;23;20323;-77
2022/01/09 12:43:28;;;;;;;0.00;0.00;;;1.70;99.90;;;;;;6190665;23;19989;-74
2022/01/09 12:45:54;;;;;;;0.00;0.00;;;1.70;99.90;;;;;;6190054;23;20035;-75
2022/01/09 12:48:20;;;;;;;0.00;0.00;;;1.70;99.90;;;;;;6164346;23;20048;-76
2022/01/09 12:50:48;;;;;;;0.00;0.00;;;1.70;99.90;;;;;;6165696;23;20192;-74
2022/01/09 12:53:29;;;;;;;0.00;0.00;;;1.80;99.90;;;;;;6189032;23;19993;-77
2022/01/09 12:56:01;;;;;;;0.00;0.00;;;1.80;99.90;;;;;;6190176;23;20272;-76
2022/01/09 12:58:34;;;;;;;0.00;0.00;;;1.80;99.90;;;;;;6192059;23;20041;-86
2022/01/09 13:01:11;;;;;;;0.00;0.00;;;1.80;99.90;;;;;;6189733;23;19989;-77
2022/01/09 13:03:40;;;;;;;0.00;0.00;;;1.80;99.90;;;;;;6188897;23;19997;-77
2022/01/09 13:06:08;;;;;;;0.00;0.00;;;1.80;99.90;;;;;;6190900;23;19985;-80
2022/01/09 13:08:35;;;;;;;0.00;0.00;;;1.80;99.90;;;;;;6188295;23;20064;-74